Etusivu
METAR-TAF:

METAR-TAF

Lentoasemat :

Berens Riverin lentoasema

Berensjoki, Manitoba, Kanada

Leveyspiiri: 52-21N, Pituuspiiri: 097-02W, korkeus merenpinnasta: 222 m

Tämänhetkinen sää

Tämä raportti tehtiin 56 minuuttia sitten, kello 19.00 UTC
Tuuli 19 kn luoteesta puuskistuen 27 kn:hen
Lämpötila -11°C
Kosteus 85%
Ilmanpaine 1018 hPa
Näkyvyys: 1.0 km
heikkoa lumisadetta, lumituiskua

METAR: CYBV 031900Z 31019G27KT 5/8SM -SN BLSN VV007 M11/M13 A3006 RMK SN8 SLP200

Aika: 14:56 (19:56 UTC)


TAF: puuttuu

Säähavainnot ja -ennusteet yli 4000 lentoasemalta (METAR- ja TAF-raportit).

Käytössä olevat sääasemat on merkitty karttaan keltaisilla ja punaisilla pisteillä.

Aseta hiiri pisteen päälle nähdäksesi sääaseman nimen.

Klikkaa sitten nähdäksesi säähavainnot ja -ennusteet.

Kartan vaihtaminen: klikkaa mustalla rastilla varustettuja vihreitä pisteitä, niin voit zoomata sisään; viivalla varustettua vihreää pistettä, niin voit zoomata ulos tai vihreitä nuolia, niin pääset viereisille kartoille.


METAR-TAF: